Crabtree Valley, North Carolina
Current Conditions -  °F | °C
As of 3:51 PM on Thursday 27 Nov 2014 (Local Time) from KRDU Reporting Station
Light Rain Light Rain  
Wind Chill: 40°   Ceiling: 3300
Heat Index: 45°   Visibility: 8mi
Dew Point: 36°   Wind: 9mph
Humidity: 71%   Direction: 320°NW
Pressure: 30.1"   Gusts: 18mph
Location:  35.8523°N, 78.6943°W
Report Text: KRDU 272051Z 32008G16KT 270V010 8SM -RA FEW025 BKN033 BKN048 BKN250 07/02 A3010 RMK AO2 RAB46 SLP192 P0000 60000 T00720022 53012 $
Loading
Personal Weather Stations






























Interactive Weather Map New forecast layout! Learn more

10-Day Weather Forecast

Advertisements
Track Severe Weather on mobile